sensor_id;sensor_type;location;lat;lon;timestamp;pressure;altitude;pressure_sealevel;temperature;humidity
42105;BME280;70664;51.472;5.712;2023-06-26T00:00:28;101082.53;;;23.93;62.65
42105;BME280;70664;51.472;5.712;2023-06-26T00:02:54;101086.84;;;23.94;62.96
42105;BME280;70664;51.472;5.712;2023-06-26T00:05:20;101085.16;;;23.93;62.85
42105;BME280;70664;51.472;5.712;2023-06-26T00:07:46;101082.53;;;23.93;63.22
42105;BME280;70664;51.472;5.712;2023-06-26T00:10:12;101071.16;;;23.92;62.99
42105;BME280;70664;51.472;5.712;2023-06-26T00:12:38;101073.78;;;23.92;62.65
42105;BME280;70664;51.472;5.712;2023-06-26T00:15:07;101066.81;;;23.91;62.98
42105;BME280;70664;51.472;5.712;2023-06-26T00:17:34;101076.34;;;23.94;63.02
42105;BME280;70664;51.472;5.712;2023-06-26T00:20:03;101074.63;;;23.93;62.93
42105;BME280;70664;51.472;5.712;2023-06-26T00:22:31;101078.09;;;23.93;62.86
42105;BME280;70664;51.472;5.712;2023-06-26T00:24:57;101079.88;;;23.93;62.93
42105;BME280;70664;51.472;5.712;2023-06-26T00:27:23;101078.19;;;23.92;62.63
42105;BME280;70664;51.472;5.712;2023-06-26T00:29:49;101080.81;;;23.92;62.73
42105;BME280;70664;51.472;5.712;2023-06-26T00:32:15;101076.50;;;23.91;62.62
42105;BME280;70664;51.472;5.712;2023-06-26T00:34:41;101081.66;;;23.92;62.77
42105;BME280;70664;51.472;5.712;2023-06-26T00:37:08;101065.91;;;23.92;62.77
42105;BME280;70664;51.472;5.712;2023-06-26T00:39:34;101084.28;;;23.92;62.65
42105;BME280;70664;51.472;5.712;2023-06-26T00:42:01;101062.44;;;23.92;62.83
42105;BME280;70664;51.472;5.712;2023-06-26T00:44:27;101079.03;;;23.92;62.60
42105;BME280;70664;51.472;5.712;2023-06-26T00:46:53;101077.31;;;23.91;62.55
42105;BME280;70664;51.472;5.712;2023-06-26T00:49:19;101075.56;;;23.92;62.60
42105;BME280;70664;51.472;5.712;2023-06-26T00:51:46;101072.06;;;23.91;62.42
42105;BME280;70664;51.472;5.712;2023-06-26T00:54:12;101065.91;;;23.92;62.48
42105;BME280;70664;51.472;5.712;2023-06-26T00:56:47;101068.59;;;23.91;62.60
42105;BME280;70664;51.472;5.712;2023-06-26T00:59:14;101072.06;;;23.91;62.50
42105;BME280;70664;51.472;5.712;2023-06-26T01:01:40;101072.06;;;23.91;62.35
42105;BME280;70664;51.472;5.712;2023-06-26T01:04:06;101063.38;;;23.91;62.66
42105;BME280;70664;51.472;5.712;2023-06-26T01:06:33;101070.38;;;23.90;62.76
42105;BME280;70664;51.472;5.712;2023-06-26T01:09:03;101065.13;;;23.90;62.27
42105;BME280;70664;51.472;5.712;2023-06-26T01:11:29;101073.00;;;23.90;62.61
42105;BME280;70664;51.472;5.712;2023-06-26T01:13:56;101076.50;;;23.91;62.43
42105;BME280;70664;51.472;5.712;2023-06-26T01:16:25;101076.50;;;23.91;62.65
42105;BME280;70664;51.472;5.712;2023-06-26T01:18:53;101079.13;;;23.91;62.36
42105;BME280;70664;51.472;5.712;2023-06-26T01:21:19;101076.50;;;23.91;62.34
42105;BME280;70664;51.472;5.712;2023-06-26T01:23:58;101073.00;;;23.90;62.52
42105;BME280;70664;51.472;5.712;2023-06-26T01:26:32;101088.75;;;23.90;62.10
42105;BME280;70664;51.472;5.712;2023-06-26T01:29:06;101091.38;;;23.90;62.22
42105;BME280;70664;51.472;5.712;2023-06-26T01:31:38;101098.34;;;23.91;62.39
42105;BME280;70664;51.472;5.712;2023-06-26T01:34:05;101100.97;;;23.91;62.45
42105;BME280;70664;51.472;5.712;2023-06-26T01:36:31;101097.56;;;23.89;62.31
42105;BME280;70664;51.472;5.712;2023-06-26T01:38:58;101103.66;;;23.90;62.44
42105;BME280;70664;51.472;5.712;2023-06-26T01:41:24;101099.25;;;23.90;62.05
42105;BME280;70664;51.472;5.712;2023-06-26T01:44:17;101103.66;;;23.90;62.14
42105;BME280;70664;51.472;5.712;2023-06-26T01:47:02;101104.50;;;23.90;62.19
42105;BME280;70664;51.472;5.712;2023-06-26T01:49:41;101105.44;;;23.89;62.27
42105;BME280;70664;51.472;5.712;2023-06-26T01:55:24;101106.34;;;23.88;62.14
42105;BME280;70664;51.472;5.712;2023-06-26T01:57:56;101108.97;;;23.88;62.32
42105;BME280;70664;51.472;5.712;2023-06-26T02:00:24;101118.56;;;23.89;62.10
42105;BME280;70664;51.472;5.712;2023-06-26T02:02:52;101120.34;;;23.89;62.23
42105;BME280;70664;51.472;5.712;2023-06-26T02:05:18;101122.97;;;23.89;62.11
42105;BME280;70664;51.472;5.712;2023-06-26T02:07:44;101128.22;;;23.89;62.09
42105;BME280;70664;51.472;5.712;2023-06-26T02:10:10;101126.44;;;23.89;61.98
42105;BME280;70664;51.472;5.712;2023-06-26T02:12:37;101130.00;;;23.88;61.86
42105;BME280;70664;51.472;5.712;2023-06-26T02:15:04;101126.53;;;23.88;61.96
42105;BME280;70664;51.472;5.712;2023-06-26T02:17:33;101134.31;;;23.89;61.90
42105;BME280;70664;51.472;5.712;2023-06-26T02:20:05;101133.47;;;23.89;61.91
42105;BME280;70664;51.472;5.712;2023-06-26T02:22:34;101141.41;;;23.87;61.93
42105;BME280;70664;51.472;5.712;2023-06-26T02:25:00;101133.53;;;23.87;61.85
42105;BME280;70664;51.472;5.712;2023-06-26T02:27:26;101138.72;;;23.89;61.76
42105;BME280;70664;51.472;5.712;2023-06-26T02:29:53;101137.94;;;23.87;61.56
42105;BME280;70664;51.472;5.712;2023-06-26T02:32:20;101130.91;;;23.87;61.74
42105;BME280;70664;51.472;5.712;2023-06-26T02:34:46;101138.00;;;23.85;61.63
42105;BME280;70664;51.472;5.712;2023-06-26T02:37:19;101136.16;;;23.87;61.60
42105;BME280;70664;51.472;5.712;2023-06-26T02:39:45;101138.78;;;23.87;61.72
42105;BME280;70664;51.472;5.712;2023-06-26T02:42:11;101137.09;;;23.86;61.20
42105;BME280;70664;51.472;5.712;2023-06-26T02:44:38;101141.41;;;23.87;61.48
42105;BME280;70664;51.472;5.712;2023-06-26T02:47:04;101139.72;;;23.86;61.35
42105;BME280;70664;51.472;5.712;2023-06-26T02:49:30;101150.31;;;23.85;61.56
42105;BME280;70664;51.472;5.712;2023-06-26T02:51:56;101152.84;;;23.86;61.14
42105;BME280;70664;51.472;5.712;2023-06-26T02:54:22;101155.47;;;23.86;61.30
42105;BME280;70664;51.472;5.712;2023-06-26T02:56:51;101157.16;;;23.87;61.45
42105;BME280;70664;51.472;5.712;2023-06-26T02:59:19;101158.19;;;23.85;61.35
42105;BME280;70664;51.472;5.712;2023-06-26T03:01:47;101164.25;;;23.85;61.20
42105;BME280;70664;51.472;5.712;2023-06-26T03:04:13;101163.44;;;23.85;61.32
42105;BME280;70664;51.472;5.712;2023-06-26T03:06:40;101171.41;;;23.83;61.49
42105;BME280;70664;51.472;5.712;2023-06-26T03:09:06;101169.50;;;23.85;60.89
42105;BME280;70664;51.472;5.712;2023-06-26T03:11:33;101176.56;;;23.85;60.98
42105;BME280;70664;51.472;5.712;2023-06-26T03:13:59;101178.31;;;23.84;61.17
42105;BME280;70664;51.472;5.712;2023-06-26T03:16:25;101174.78;;;23.85;61.22
42105;BME280;70664;51.472;5.712;2023-06-26T03:18:51;101182.66;;;23.85;61.22
42105;BME280;70664;51.472;5.712;2023-06-26T03:21:17;101183.56;;;23.84;60.79
42105;BME280;70664;51.472;5.712;2023-06-26T03:23:43;101185.34;;;23.84;61.02
42105;BME280;70664;51.472;5.712;2023-06-26T03:26:09;101185.34;;;23.84;60.92
42105;BME280;70664;51.472;5.712;2023-06-26T03:28:35;101189.69;;;23.85;60.79
42105;BME280;70664;51.472;5.712;2023-06-26T03:31:02;101188.06;;;23.82;60.75
42105;BME280;70664;51.472;5.712;2023-06-26T03:33:28;101186.28;;;23.83;60.74
42105;BME280;70664;51.472;5.712;2023-06-26T03:35:54;101186.28;;;23.83;60.67
42105;BME280;70664;51.472;5.712;2023-06-26T03:38:21;101182.81;;;23.82;61.14
42105;BME280;70664;51.472;5.712;2023-06-26T03:40:47;101181.13;;;23.81;60.92
42105;BME280;70664;51.472;5.712;2023-06-26T03:43:16;101190.69;;;23.82;60.79
42105;BME280;70664;51.472;5.712;2023-06-26T03:45:51;101186.38;;;23.81;60.82
42105;BME280;70664;51.472;5.712;2023-06-26T03:48:17;101188.06;;;23.82;61.05
42105;BME280;70664;51.472;5.712;2023-06-26T03:50:44;101182.88;;;23.81;60.76
42105;BME280;70664;51.472;5.712;2023-06-26T03:53:10;101189.00;;;23.81;60.79
42105;BME280;70664;51.472;5.712;2023-06-26T03:55:36;101200.31;;;23.82;60.68
42105;BME280;70664;51.472;5.712;2023-06-26T03:58:04;101197.78;;;23.80;60.63
42105;BME280;70664;51.472;5.712;2023-06-26T04:00:37;101192.53;;;23.80;60.46
42105;BME280;70664;51.472;5.712;2023-06-26T04:03:03;101202.97;;;23.82;60.45
42105;BME280;70664;51.472;5.712;2023-06-26T04:05:29;101199.53;;;23.79;60.54
42105;BME280;70664;51.472;5.712;2023-06-26T04:07:55;101201.34;;;23.79;60.37
42105;BME280;70664;51.472;5.712;2023-06-26T04:10:25;101215.31;;;23.79;60.49
42105;BME280;70664;51.472;5.712;2023-06-26T04:12:51;101217.00;;;23.81;60.81
42105;BME280;70664;51.472;5.712;2023-06-26T04:15:17;101217.09;;;23.79;60.42
42105;BME280;70664;51.472;5.712;2023-06-26T04:17:43;101216.22;;;23.78;60.55
42105;BME280;70664;51.472;5.712;2023-06-26T04:20:09;101218.84;;;23.78;60.72
42105;BME280;70664;51.472;5.712;2023-06-26T04:22:36;101227.59;;;23.79;60.25
42105;BME280;70664;51.472;5.712;2023-06-26T04:25:03;101233.69;;;23.79;60.30
42105;BME280;70664;51.472;5.712;2023-06-26T04:27:30;101230.22;;;23.79;60.37
42105;BME280;70664;51.472;5.712;2023-06-26T04:29:57;101233.69;;;23.79;60.22
42105;BME280;70664;51.472;5.712;2023-06-26T04:32:23;101235.53;;;23.77;60.05
42105;BME280;70664;51.472;5.712;2023-06-26T04:34:49;101242.47;;;23.78;60.59
42105;BME280;70664;51.472;5.712;2023-06-26T04:37:15;101249.50;;;23.78;59.93
42105;BME280;70664;51.472;5.712;2023-06-26T04:39:42;101243.34;;;23.79;60.39
42105;BME280;70664;51.472;5.712;2023-06-26T04:42:08;101245.97;;;23.79;60.10
42105;BME280;70664;51.472;5.712;2023-06-26T04:44:37;101239.84;;;23.78;60.07
42105;BME280;70664;51.472;5.712;2023-06-26T04:47:06;101241.56;;;23.79;60.18
42105;BME280;70664;51.472;5.712;2023-06-26T04:49:35;101239.78;;;23.80;60.48
42105;BME280;70664;51.472;5.712;2023-06-26T04:52:01;101243.25;;;23.81;60.28
42105;BME280;70664;51.472;5.712;2023-06-26T04:54:27;101244.13;;;23.81;60.10
42105;BME280;70664;51.472;5.712;2023-06-26T04:56:55;101251.22;;;23.79;60.18
42105;BME280;70664;51.472;5.712;2023-06-26T04:59:22;101258.19;;;23.80;60.15
42105;BME280;70664;51.472;5.712;2023-06-26T05:01:48;101263.44;;;23.80;60.37
42105;BME280;70664;51.472;5.712;2023-06-26T05:04:15;101263.34;;;23.82;60.23
42105;BME280;70664;51.472;5.712;2023-06-26T05:06:45;101262.50;;;23.81;60.37
42105;BME280;70664;51.472;5.712;2023-06-26T05:09:11;101264.25;;;23.81;60.20
42105;BME280;70664;51.472;5.712;2023-06-26T05:11:37;101259.00;;;23.81;60.43
42105;BME280;70664;51.472;5.712;2023-06-26T05:14:04;101264.22;;;23.82;60.11
42105;BME280;70664;51.472;5.712;2023-06-26T05:16:33;101253.72;;;23.82;60.45
42105;BME280;70664;51.472;5.712;2023-06-26T05:19:00;101262.50;;;23.81;60.30
42105;BME280;70664;51.472;5.712;2023-06-26T05:21:28;101272.13;;;23.81;60.54
42105;BME280;70664;51.472;5.712;2023-06-26T05:23:57;101266.88;;;23.81;60.37
42105;BME280;70664;51.472;5.712;2023-06-26T05:26:24;101268.69;;;23.80;60.46
42105;BME280;70664;51.472;5.712;2023-06-26T05:28:51;101275.69;;;23.79;60.08
42105;BME280;70664;51.472;5.712;2023-06-26T05:31:17;101276.56;;;23.80;60.18
42105;BME280;70664;51.472;5.712;2023-06-26T05:33:44;101281.81;;;23.80;60.55
42105;BME280;70664;51.472;5.712;2023-06-26T05:36:13;101293.22;;;23.79;60.45
42105;BME280;70664;51.472;5.712;2023-06-26T05:38:44;101287.97;;;23.79;60.58
42105;BME280;70664;51.472;5.712;2023-06-26T05:41:10;101294.06;;;23.79;60.26
42105;BME280;70664;51.472;5.712;2023-06-26T05:43:36;101297.56;;;23.80;60.49
42105;BME280;70664;51.472;5.712;2023-06-26T05:46:03;101306.22;;;23.82;60.64
42105;BME280;70664;51.472;5.712;2023-06-26T05:48:32;101313.22;;;23.82;60.55
42105;BME280;70664;51.472;5.712;2023-06-26T05:50:58;101316.72;;;23.82;60.36
42105;BME280;70664;51.472;5.712;2023-06-26T05:53:26;101316.78;;;23.81;60.27
42105;BME280;70664;51.472;5.712;2023-06-26T05:55:58;101311.59;;;23.79;60.51
42105;BME280;70664;51.472;5.712;2023-06-26T05:58:26;101317.69;;;23.79;60.34
42105;BME280;70664;51.472;5.712;2023-06-26T06:01:01;101327.97;;;23.84;60.57
42105;BME280;70664;51.472;5.712;2023-06-26T06:03:31;101328.06;;;23.83;60.16
42105;BME280;70664;51.472;5.712;2023-06-26T06:05:57;101324.59;;;23.82;60.03
42105;BME280;70664;51.472;5.712;2023-06-26T06:08:23;101323.69;;;23.83;60.14
42105;BME280;70664;51.472;5.712;2023-06-26T06:10:49;101325.44;;;23.83;60.15
42105;BME280;70664;51.472;5.712;2023-06-26T06:13:15;101329.78;;;23.84;59.99
42105;BME280;70664;51.472;5.712;2023-06-26T06:15:44;101334.00;;;23.86;59.80
42105;BME280;70664;51.472;5.712;2023-06-26T06:18:11;101342.75;;;23.87;60.04
42105;BME280;70664;51.472;5.712;2023-06-26T06:20:37;101340.13;;;23.87;59.66
42105;BME280;70664;51.472;5.712;2023-06-26T06:23:03;101350.66;;;23.87;60.06
42105;BME280;70664;51.472;5.712;2023-06-26T06:25:28;101344.59;;;23.85;59.79
42105;BME280;70664;51.472;5.712;2023-06-26T06:27:55;101349.78;;;23.86;59.92
42105;BME280;70664;51.472;5.712;2023-06-26T06:30:21;101361.16;;;23.87;60.03
42105;BME280;70664;51.472;5.712;2023-06-26T06:32:47;101365.47;;;23.88;59.85
42105;BME280;70664;51.472;5.712;2023-06-26T06:35:18;101366.31;;;23.88;59.67
42105;BME280;70664;51.472;5.712;2023-06-26T06:37:44;101375.97;;;23.88;59.54
42105;BME280;70664;51.472;5.712;2023-06-26T06:40:11;101371.66;;;23.87;59.65
42105;BME280;70664;51.472;5.712;2023-06-26T06:42:37;101369.06;;;23.85;59.70
42105;BME280;70664;51.472;5.712;2023-06-26T06:45:04;101369.03;;;23.87;59.74
42105;BME280;70664;51.472;5.712;2023-06-26T06:47:32;101362.06;;;23.86;59.79
42105;BME280;70664;51.472;5.712;2023-06-26T06:50:00;101369.03;;;23.87;59.38
42105;BME280;70664;51.472;5.712;2023-06-26T06:52:38;101355.81;;;23.88;59.52
42105;BME280;70664;51.472;5.712;2023-06-26T06:55:07;101369.25;;;23.82;57.63
42105;BME280;70664;51.472;5.712;2023-06-26T06:57:35;101388.66;;;23.78;57.37
42105;BME280;70664;51.472;5.712;2023-06-26T07:00:11;101387.00;;;23.75;56.90
42105;BME280;70664;51.472;5.712;2023-06-26T07:02:38;101390.56;;;23.74;57.17
42105;BME280;70664;51.472;5.712;2023-06-26T07:05:05;101397.72;;;23.71;56.33
42105;BME280;70664;51.472;5.712;2023-06-26T07:07:33;101392.59;;;23.68;56.27
42105;BME280;70664;51.472;5.712;2023-06-26T07:10:15;101394.44;;;23.66;55.97
42105;BME280;70664;51.472;5.712;2023-06-26T07:12:41;101403.19;;;23.66;56.09
42105;BME280;70664;51.472;5.712;2023-06-26T07:15:08;101404.03;;;23.67;55.95
42105;BME280;70664;51.472;5.712;2023-06-26T07:17:34;101408.34;;;23.68;55.83
42105;BME280;70664;51.472;5.712;2023-06-26T07:20:04;101411.84;;;23.68;55.56
42105;BME280;70664;51.472;5.712;2023-06-26T07:22:43;101412.81;;;23.66;55.46
42105;BME280;70664;51.472;5.712;2023-06-26T07:25:11;101421.59;;;23.64;55.31
42105;BME280;70664;51.472;5.712;2023-06-26T07:27:38;101421.59;;;23.64;55.32
42105;BME280;70664;51.472;5.712;2023-06-26T07:30:05;101424.31;;;23.63;55.48
42105;BME280;70664;51.472;5.712;2023-06-26T07:32:34;101422.66;;;23.60;55.21
42105;BME280;70664;51.472;5.712;2023-06-26T07:35:02;101436.56;;;23.62;55.28
42105;BME280;70664;51.472;5.712;2023-06-26T07:37:30;101430.47;;;23.62;55.21
42105;BME280;70664;51.472;5.712;2023-06-26T07:39:56;101440.91;;;23.63;55.20
42105;BME280;70664;51.472;5.712;2023-06-26T07:42:22;101440.09;;;23.61;55.17
42105;BME280;70664;51.472;5.712;2023-06-26T07:44:48;101446.22;;;23.62;55.08
42105;BME280;70664;51.472;5.712;2023-06-26T07:47:17;101448.91;;;23.60;55.25
42105;BME280;70664;51.472;5.712;2023-06-26T07:49:46;101453.22;;;23.61;55.45
42105;BME280;70664;51.472;5.712;2023-06-26T07:52:12;101449.75;;;23.61;55.31
42105;BME280;70664;51.472;5.712;2023-06-26T07:54:40;101455.16;;;23.58;55.27
42105;BME280;70664;51.472;5.712;2023-06-26T07:57:07;101455.06;;;23.59;55.44
42105;BME280;70664;51.472;5.712;2023-06-26T07:59:34;101454.22;;;23.59;55.44
42105;BME280;70664;51.472;5.712;2023-06-26T08:02:01;101457.78;;;23.58;55.29
42105;BME280;70664;51.472;5.712;2023-06-26T08:04:30;101464.59;;;23.62;55.69
42105;BME280;70664;51.472;5.712;2023-06-26T08:07:00;101470.75;;;23.61;55.53
42105;BME280;70664;51.472;5.712;2023-06-26T08:09:29;101463.84;;;23.58;55.28
42105;BME280;70664;51.472;5.712;2023-06-26T08:11:56;101463.81;;;23.60;55.70
42105;BME280;70664;51.472;5.712;2023-06-26T08:14:22;101466.44;;;23.60;55.34
42105;BME280;70664;51.472;5.712;2023-06-26T08:16:49;101463.81;;;23.60;55.58
42105;BME280;70664;51.472;5.712;2023-06-26T08:19:16;101456.78;;;23.60;55.86
42105;BME280;70664;51.472;5.712;2023-06-26T08:21:44;101464.66;;;23.60;55.70
42105;BME280;70664;51.472;5.712;2023-06-26T08:24:10;101465.50;;;23.61;55.61
42105;BME280;70664;51.472;5.712;2023-06-26T08:26:37;101476.84;;;23.61;55.69
42105;BME280;70664;51.472;5.712;2023-06-26T08:29:03;101478.56;;;23.62;55.79
42105;BME280;70664;51.472;5.712;2023-06-26T08:31:34;101472.41;;;23.63;55.70
42105;BME280;70664;51.472;5.712;2023-06-26T08:34:02;101468.84;;;23.64;55.69
42105;BME280;70664;51.472;5.712;2023-06-26T08:36:28;101473.56;;;23.56;54.88
42105;BME280;70664;51.472;5.712;2023-06-26T08:38:54;101472.38;;;23.43;55.49
42105;BME280;70664;51.472;5.712;2023-06-26T08:41:20;101471.94;;;23.31;55.15
42105;BME280;70664;51.472;5.712;2023-06-26T08:43:46;101483.56;;;23.26;54.79
42105;BME280;70664;51.472;5.712;2023-06-26T08:46:12;101483.63;;;23.24;54.36
42105;BME280;70664;51.472;5.712;2023-06-26T08:48:39;101489.41;;;23.32;54.99
42105;BME280;70664;51.472;5.712;2023-06-26T08:51:12;101474.09;;;23.44;53.74
42105;BME280;70664;51.472;5.712;2023-06-26T08:54:34;101490.75;;;23.43;52.21
42105;BME280;70664;51.472;5.712;2023-06-26T08:57:06;101491.53;;;23.45;51.29
42105;BME280;70664;51.472;5.712;2023-06-26T08:59:39;101493.25;;;23.46;50.08
42105;BME280;70664;51.472;5.712;2023-06-26T09:02:06;101504.78;;;23.42;49.13
42105;BME280;70664;51.472;5.712;2023-06-26T09:04:32;101500.38;;;23.42;49.04
42105;BME280;70664;51.472;5.712;2023-06-26T09:06:59;101501.16;;;23.44;48.77
42105;BME280;70664;51.472;5.712;2023-06-26T09:09:31;101513.56;;;23.41;48.58
42105;BME280;70664;51.472;5.712;2023-06-26T09:11:58;101499.66;;;23.39;48.55
42105;BME280;70664;51.472;5.712;2023-06-26T09:14:24;101508.31;;;23.41;48.16
42105;BME280;70664;51.472;5.712;2023-06-26T09:16:52;101511.75;;;23.43;48.52
42105;BME280;70664;51.472;5.712;2023-06-26T09:19:18;101508.31;;;23.41;48.13
42105;BME280;70664;51.472;5.712;2023-06-26T09:21:44;101517.91;;;23.42;48.22
42105;BME280;70664;51.472;5.712;2023-06-26T09:24:13;101522.16;;;23.44;48.74
42105;BME280;70664;51.472;5.712;2023-06-26T09:26:40;101519.63;;;23.43;48.85
42105;BME280;70664;51.472;5.712;2023-06-26T09:29:06;101519.50;;;23.46;48.99
42105;BME280;70664;51.472;5.712;2023-06-26T09:31:42;101514.38;;;23.43;48.05
42105;BME280;70664;51.472;5.712;2023-06-26T09:34:11;101519.50;;;23.46;48.64
42105;BME280;70664;51.472;5.712;2023-06-26T09:36:38;101509.78;;;23.48;48.08
42105;BME280;70664;51.472;5.712;2023-06-26T09:39:07;101519.63;;;23.43;47.04
42105;BME280;70664;51.472;5.712;2023-06-26T09:41:37;101522.47;;;23.37;46.41
42105;BME280;70664;51.472;5.712;2023-06-26T09:44:05;101526.94;;;23.34;46.47
42105;BME280;70664;51.472;5.712;2023-06-26T09:46:32;101540.72;;;23.40;46.49
42105;BME280;70664;51.472;5.712;2023-06-26T09:49:07;101532.28;;;23.31;46.67
42105;BME280;70664;51.472;5.712;2023-06-26T09:51:35;101546.19;;;23.33;46.81
42105;BME280;70664;51.472;5.712;2023-06-26T09:54:03;101543.84;;;23.27;46.88
42105;BME280;70664;51.472;5.712;2023-06-26T09:56:30;101555.25;;;23.26;47.03
42105;BME280;70664;51.472;5.712;2023-06-26T09:58:59;101554.38;;;23.26;46.97
42105;BME280;70664;51.472;5.712;2023-06-26T10:01:31;101563.16;;;23.25;47.41
42105;BME280;70664;51.472;5.712;2023-06-26T10:03:58;101557.69;;;23.31;46.81
42105;BME280;70664;51.472;5.712;2023-06-26T10:06:47;101560.06;;;23.37;46.50
42105;BME280;70664;51.472;5.712;2023-06-26T10:09:17;101546.09;;;23.37;44.71
42105;BME280;70664;51.472;5.712;2023-06-26T10:12:06;101556.53;;;23.38;43.82
42105;BME280;70664;51.472;5.712;2023-06-26T10:14:37;101556.47;;;23.40;43.07
42105;BME280;70664;51.472;5.712;2023-06-26T10:17:15;101549.69;;;23.34;43.27
42105;BME280;70664;51.472;5.712;2023-06-26T10:19:45;101568.88;;;23.36;43.30
42105;BME280;70664;51.472;5.712;2023-06-26T10:22:18;101563.72;;;23.33;43.68
42105;BME280;70664;51.472;5.712;2023-06-26T10:24:49;101569.81;;;23.33;44.27
42105;BME280;70664;51.472;5.712;2023-06-26T10:27:19;101562.75;;;23.36;44.62
42105;BME280;70664;51.472;5.712;2023-06-26T10:29:55;101560.06;;;23.37;44.54
42105;BME280;70664;51.472;5.712;2023-06-26T10:32:24;101566.28;;;23.34;43.50
42105;BME280;70664;51.472;5.712;2023-06-26T10:34:51;101575.06;;;23.33;43.04
42105;BME280;70664;51.472;5.712;2023-06-26T10:37:17;101579.25;;;23.39;42.40
42105;BME280;70664;51.472;5.712;2023-06-26T10:39:48;101566.06;;;23.41;42.55
42105;BME280;70664;51.472;5.712;2023-06-26T10:42:28;101570.38;;;23.42;42.12
42105;BME280;70664;51.472;5.712;2023-06-26T10:45:16;101568.56;;;23.44;42.31
42105;BME280;70664;51.472;5.712;2023-06-26T10:47:46;101588.53;;;23.48;42.21
42105;BME280;70664;51.472;5.712;2023-06-26T10:50:51;101600.72;;;23.49;42.12
42105;BME280;70664;51.472;5.712;2023-06-26T10:53:37;101579.06;;;23.44;41.15
42105;BME280;70664;51.472;5.712;2023-06-26T10:56:05;101587.72;;;23.46;40.73
42105;BME280;70664;51.472;5.712;2023-06-26T11:03:44;101604.25;;;23.48;40.73
42105;BME280;70664;51.472;5.712;2023-06-26T11:06:19;101596.28;;;23.51;39.67
42105;BME280;70664;51.472;5.712;2023-06-26T11:11:16;101580.25;;;23.57;41.36
42105;BME280;70664;51.472;5.712;2023-06-26T11:13:44;101585.81;;;23.72;41.22
42105;BME280;70664;51.472;5.712;2023-06-26T11:16:12;101595.59;;;23.68;42.54
42105;BME280;70664;51.472;5.712;2023-06-26T11:18:39;101592.19;;;23.66;42.51
42105;BME280;70664;51.472;5.712;2023-06-26T11:21:09;101596.66;;;23.64;42.78
42105;BME280;70664;51.472;5.712;2023-06-26T11:23:37;101601.47;;;23.75;41.23
42105;BME280;70664;51.472;5.712;2023-06-26T11:26:19;101620.16;;;23.67;41.20
42105;BME280;70664;51.472;5.712;2023-06-26T11:28:54;101622.81;;;23.66;41.21
42105;BME280;70664;51.472;5.712;2023-06-26T11:31:31;101621.22;;;23.61;40.62
42105;BME280;70664;51.472;5.712;2023-06-26T11:34:05;101633.31;;;23.66;40.35
42105;BME280;70664;51.472;5.712;2023-06-26T11:36:33;101630.81;;;23.62;40.28
42105;BME280;70664;51.472;5.712;2023-06-26T11:39:04;101618.56;;;23.63;40.60
42105;BME280;70664;51.472;5.712;2023-06-26T11:41:39;101616.84;;;23.62;41.02
42105;BME280;70664;51.472;5.712;2023-06-26T11:44:10;101628.81;;;23.69;41.07
42105;BME280;70664;51.472;5.712;2023-06-26T11:46:37;101628.97;;;23.64;41.47
42105;BME280;70664;51.472;5.712;2023-06-26T11:49:07;101633.31;;;23.66;41.26
42105;BME280;70664;51.472;5.712;2023-06-26T11:51:34;101640.34;;;23.65;40.53
42105;BME280;70664;51.472;5.712;2023-06-26T11:54:02;101648.28;;;23.63;40.73
42105;BME280;70664;51.472;5.712;2023-06-26T11:56:29;101655.22;;;23.64;41.01
42105;BME280;70664;51.472;5.712;2023-06-26T11:59:02;101651.63;;;23.89;39.81
42105;BME280;70664;51.472;5.712;2023-06-26T12:01:43;101651.47;;;23.72;39.91
42105;BME280;70664;51.472;5.712;2023-06-26T12:04:16;101663.72;;;23.71;38.99
42105;BME280;70664;51.472;5.712;2023-06-26T12:06:48;101651.66;;;23.67;39.29
42105;BME280;70664;51.472;5.712;2023-06-26T12:09:14;101664.81;;;23.66;39.92
42105;BME280;70664;51.472;5.712;2023-06-26T12:11:42;101664.91;;;23.64;39.96
42105;BME280;70664;51.472;5.712;2023-06-26T12:14:09;101677.53;;;23.76;39.90
42105;BME280;70664;51.472;5.712;2023-06-26T12:16:36;101665.38;;;23.74;39.85
42105;BME280;70664;51.472;5.712;2023-06-26T12:19:06;101661.72;;;23.78;40.53
42105;BME280;70664;51.472;5.712;2023-06-26T12:24:05;101673.38;;;23.71;40.25
42105;BME280;70664;51.472;5.712;2023-06-26T12:26:32;101669.66;;;23.76;39.35
42105;BME280;70664;51.472;5.712;2023-06-26T12:29:08;101661.06;;;23.73;39.86
42105;BME280;70664;51.472;5.712;2023-06-26T12:31:49;101668.19;;;23.69;39.97
42105;BME280;70664;51.472;5.712;2023-06-26T12:34:19;101666.34;;;23.71;39.43
42105;BME280;70664;51.472;5.712;2023-06-26T12:36:50;101663.50;;;23.77;38.59
42105;BME280;70664;51.472;5.712;2023-06-26T12:39:20;101674.19;;;23.73;39.57
42105;BME280;70664;51.472;5.712;2023-06-26T12:42:25;101678.63;;;23.71;38.61
42105;BME280;70664;51.472;5.712;2023-06-26T12:48:43;101666.34;;;23.71;38.71
42105;BME280;70664;51.472;5.712;2023-06-26T12:51:13;101660.25;;;23.71;39.48
42105;BME280;70664;51.472;5.712;2023-06-26T12:54:07;101669.88;;;23.70;40.01
42105;BME280;70664;51.472;5.712;2023-06-26T12:56:33;101672.16;;;23.79;39.45
42105;BME280;70664;51.472;5.712;2023-06-26T13:01:36;101676.91;;;23.70;40.54
42105;BME280;70664;51.472;5.712;2023-06-26T13:04:02;101672.41;;;23.73;39.98
42105;BME280;70664;51.472;5.712;2023-06-26T13:06:29;101671.59;;;23.71;40.42
42105;BME280;70664;51.472;5.712;2023-06-26T13:08:55;101670.81;;;23.69;40.64
42105;BME280;70664;51.472;5.712;2023-06-26T13:11:22;101672.50;;;23.70;40.64
42105;BME280;70664;51.472;5.712;2023-06-26T13:13:48;101677.66;;;23.73;40.33
42105;BME280;70664;51.472;5.712;2023-06-26T13:16:14;101683.75;;;23.74;40.53
42105;BME280;70664;51.472;5.712;2023-06-26T13:18:40;101676.81;;;23.73;41.01